createdAt,value
2019-04-30T00:01:20.556Z,20.53
2019-04-30T00:04:07.026Z,21.10
2019-04-30T00:06:39.538Z,22.37
2019-04-30T00:09:17.086Z,22.17
2019-04-30T00:11:42.785Z,20.67
2019-04-30T00:14:15.142Z,21.70
2019-04-30T00:16:45.190Z,22.87
2019-04-30T00:19:19.473Z,21.70
2019-04-30T00:21:48.285Z,22.40
2019-04-30T00:24:19.370Z,22.77
2019-04-30T00:26:52.384Z,22.57
2019-04-30T00:29:26.664Z,22.57
2019-04-30T00:31:57.655Z,22.97
2019-04-30T00:34:25.850Z,21.93
2019-04-30T00:36:56.149Z,22.70
2019-04-30T00:39:27.258Z,23.30
2019-04-30T00:41:57.854Z,22.33
2019-04-30T00:44:28.534Z,22.83
2019-04-30T00:47:00.690Z,24.47
2019-04-30T00:49:30.901Z,21.93
2019-04-30T00:52:01.211Z,24.43
2019-04-30T00:54:35.078Z,22.93
2019-04-30T00:57:07.251Z,24.40
2019-04-30T00:59:35.370Z,23.90
2019-04-30T01:02:35.772Z,24.20
2019-04-30T01:05:11.069Z,24.73
2019-04-30T01:07:48.827Z,23.63
2019-04-30T01:10:15.207Z,23.87
2019-04-30T01:12:49.605Z,23.07
2019-04-30T01:15:19.080Z,24.00
2019-04-30T01:17:51.090Z,23.83
2019-04-30T01:20:24.157Z,23.73
2019-04-30T01:22:54.145Z,23.53
2019-04-30T01:25:24.810Z,24.30
2019-04-30T01:27:55.454Z,24.27
2019-04-30T01:30:25.767Z,24.60
2019-04-30T01:32:57.141Z,23.83
2019-04-30T01:35:32.462Z,22.40
2019-04-30T01:38:04.089Z,24.10
2019-04-30T01:40:32.245Z,23.17
2019-04-30T01:43:02.553Z,23.77
2019-04-30T01:45:32.873Z,24.40
2019-04-30T01:48:08.840Z,24.67
2019-04-30T01:50:38.707Z,22.83
2019-04-30T01:53:11.445Z,24.30
2019-04-30T01:55:59.202Z,24.13
2019-04-30T01:58:49.484Z,24.80
2019-04-30T02:01:22.333Z,24.07
2019-04-30T02:03:52.633Z,23.93
2019-04-30T02:06:22.981Z,24.40
2019-04-30T02:08:53.269Z,25.77
2019-04-30T02:11:23.681Z,25.30
2019-04-30T02:13:54.017Z,25.73
2019-04-30T02:16:24.354Z,25.63
2019-04-30T02:18:54.659Z,26.70
2019-04-30T02:21:25.017Z,25.73
2019-04-30T02:23:55.361Z,26.93
2019-04-30T02:26:25.688Z,26.60
2019-04-30T02:28:56.013Z,27.43
2019-04-30T02:31:26.449Z,28.10
2019-04-30T02:34:04.289Z,28.60
2019-04-30T02:36:41.786Z,27.67
2019-04-30T02:39:12.098Z,28.07
2019-04-30T02:41:43.830Z,27.70
2019-04-30T02:44:14.664Z,26.73
2019-04-30T02:46:46.066Z,28.33
2019-04-30T02:49:20.073Z,28.13
2019-04-30T02:51:50.952Z,27.37
2019-04-30T02:54:29.949Z,27.63
2019-04-30T02:57:06.792Z,27.87
2019-04-30T02:59:40.372Z,27.80
2019-04-30T03:02:11.688Z,28.00
2019-04-30T03:04:42.250Z,28.63
2019-04-30T03:07:12.567Z,29.23
2019-04-30T03:09:42.903Z,28.83
2019-04-30T03:12:13.216Z,29.70
2019-04-30T03:14:43.538Z,28.47
2019-04-30T03:17:23.425Z,28.30
2019-04-30T03:20:03.083Z,29.40
2019-04-30T03:22:30.797Z,27.93
2019-04-30T03:25:01.126Z,28.67
2019-04-30T03:27:32.542Z,27.53
2019-04-30T03:30:02.927Z,27.43
2019-04-30T03:32:36.824Z,28.30
2019-04-30T03:35:05.634Z,28.60
2019-04-30T03:37:35.963Z,28.53
2019-04-30T03:40:06.846Z,27.47
2019-04-30T03:42:39.521Z,27.93
2019-04-30T03:45:10.097Z,28.90
2019-04-30T03:47:43.290Z,27.40
2019-04-30T03:50:12.743Z,27.70
2019-04-30T03:52:43.053Z,28.87
2019-04-30T03:55:13.503Z,29.53
2019-04-30T03:57:43.899Z,27.77
2019-04-30T04:00:17.172Z,27.17
2019-04-30T04:02:50.206Z,28.60
2019-04-30T04:05:43.595Z,28.93
2019-04-30T04:08:36.062Z,28.17
2019-04-30T04:11:19.954Z,27.83
2019-04-30T04:13:50.399Z,27.20
2019-04-30T04:16:20.767Z,26.77
2019-04-30T04:18:51.146Z,26.53
2019-04-30T04:21:21.527Z,25.60
2019-04-30T04:23:51.924Z,25.30
2019-04-30T04:26:22.297Z,25.60
2019-04-30T04:28:52.745Z,23.77
2019-04-30T04:31:23.083Z,24.27
2019-04-30T04:33:53.390Z,25.30
2019-04-30T04:36:23.737Z,25.93
2019-04-30T04:38:54.058Z,26.10
2019-04-30T04:41:24.385Z,28.80
2019-04-30T04:43:54.690Z,28.70
2019-04-30T04:46:25.015Z,29.27
2019-04-30T04:48:55.317Z,26.93
2019-04-30T04:51:36.628Z,26.63
2019-04-30T04:54:00.201Z,27.00
2019-04-30T04:56:30.401Z,26.60
2019-04-30T04:59:00.945Z,26.03
2019-04-30T05:01:31.291Z,25.37
2019-04-30T05:04:01.598Z,25.20
2019-04-30T05:06:31.977Z,25.63
2019-04-30T05:09:02.381Z,25.13
2019-04-30T05:11:32.699Z,25.60
2019-04-30T05:14:03.026Z,24.63
2019-04-30T05:16:34.570Z,25.60
2019-04-30T05:19:04.969Z,23.67
2019-04-30T05:21:42.738Z,24.57
2019-04-30T05:24:08.952Z,25.37
2019-04-30T05:26:39.425Z,23.43
2019-04-30T05:29:09.886Z,25.50
2019-04-30T05:31:40.434Z,24.43
2019-04-30T05:34:10.754Z,24.70
2019-04-30T05:36:41.185Z,24.63
2019-04-30T05:39:11.494Z,25.43
2019-04-30T05:41:41.806Z,25.67
2019-04-30T05:44:12.112Z,23.27
2019-04-30T05:46:42.533Z,24.30
2019-04-30T05:49:12.917Z,23.03
2019-04-30T05:51:52.839Z,23.10
2019-04-30T05:54:15.161Z,22.33
2019-04-30T05:56:45.489Z,21.67
2019-04-30T05:59:15.934Z,23.07
2019-04-30T06:01:48.766Z,20.27
2019-04-30T06:04:19.393Z,20.40
2019-04-30T06:06:49.891Z,19.40
2019-04-30T06:09:38.542Z,19.07
2019-04-30T06:12:40.225Z,20.03
2019-04-30T06:15:34.290Z,20.53
2019-04-30T06:18:11.561Z,19.57
2019-04-30T06:20:38.538Z,18.30
2019-04-30T06:23:09.637Z,17.57
2019-04-30T06:25:55.646Z,18.77
2019-04-30T06:28:13.177Z,19.10
2019-04-30T06:30:43.508Z,18.27
2019-04-30T06:33:14.159Z,17.80
2019-04-30T06:35:45.461Z,16.47
2019-04-30T06:38:16.022Z,16.13
2019-04-30T06:40:46.366Z,16.23
2019-04-30T06:43:21.229Z,15.73
2019-04-30T06:45:54.961Z,16.37
2019-04-30T06:48:30.036Z,16.87
2019-04-30T06:51:02.267Z,17.27
2019-04-30T06:53:35.178Z,15.87
2019-04-30T06:56:09.017Z,16.23
2019-04-30T06:58:41.402Z,14.93
2019-04-30T07:01:13.277Z,16.20
2019-04-30T07:03:43.709Z,15.50
2019-04-30T07:09:08.702Z,15.40
2019-04-30T07:11:41.798Z,14.73
2019-04-30T07:14:12.117Z,14.97
2019-04-30T07:16:42.486Z,14.87
2019-04-30T07:19:13.369Z,14.13
2019-04-30T07:21:45.267Z,14.83
2019-04-30T07:24:15.985Z,14.63
2019-04-30T07:26:46.313Z,14.40
2019-04-30T07:29:16.839Z,13.43
2019-04-30T07:31:49.327Z,13.80
2019-04-30T07:34:19.640Z,14.37
2019-04-30T07:38:00.641Z,13.63
2019-04-30T07:40:30.943Z,13.37
2019-04-30T07:43:01.250Z,13.07
2019-04-30T07:48:03.544Z,13.40
2019-04-30T07:50:34.797Z,12.33
2019-04-30T07:53:06.780Z,12.97
2019-04-30T07:55:39.246Z,13.53
2019-04-30T07:58:09.335Z,14.63
2019-04-30T08:00:41.303Z,13.40
2019-04-30T08:03:35.247Z,13.10
2019-04-30T08:06:06.224Z,12.90
2019-04-30T08:08:36.699Z,13.60
2019-04-30T08:09:36.812Z,13.00
2019-04-30T08:11:06.583Z,13.60
2019-04-30T08:13:39.621Z,13.43
2019-04-30T08:16:09.780Z,13.33
2019-04-30T08:18:40.386Z,14.03
2019-04-30T08:21:10.698Z,13.63
2019-04-30T08:23:41.109Z,14.53
2019-04-30T08:26:11.486Z,14.00
2019-04-30T08:28:41.798Z,15.03
2019-04-30T08:31:12.250Z,13.87
2019-04-30T08:33:43.734Z,13.83
2019-04-30T08:36:14.030Z,13.90
2019-04-30T08:38:44.376Z,13.03
2019-04-30T08:41:15.268Z,13.30
2019-04-30T08:43:45.602Z,13.73
2019-04-30T08:46:18.941Z,14.17
2019-04-30T08:48:51.614Z,13.23
2019-04-30T08:51:21.033Z,13.27
2019-04-30T08:53:51.446Z,13.17
2019-04-30T08:56:22.061Z,12.63
2019-04-30T08:58:54.813Z,12.90
2019-04-30T09:01:24.433Z,12.93
2019-04-30T09:03:54.893Z,14.30
2019-04-30T09:06:29.085Z,13.03
2019-04-30T09:09:24.144Z,12.10
2019-04-30T09:11:55.938Z,12.10
2019-04-30T09:14:26.799Z,12.17
2019-04-30T09:16:57.071Z,12.23
2019-04-30T09:19:27.381Z,12.43
2019-04-30T09:21:59.023Z,12.57
2019-04-30T09:24:31.522Z,13.20
2019-04-30T09:27:02.004Z,13.43
2019-04-30T09:29:33.806Z,11.87
2019-04-30T09:32:04.225Z,11.77
2019-04-30T09:34:34.669Z,12.93
2019-04-30T09:37:05.065Z,13.80
2019-04-30T09:39:35.477Z,12.90
2019-04-30T09:42:09.142Z,13.03
2019-04-30T09:44:39.438Z,12.33
2019-04-30T09:47:09.922Z,11.70
2019-04-30T09:49:42.896Z,11.77
2019-04-30T09:52:13.783Z,12.60
2019-04-30T09:54:46.206Z,12.93
2019-04-30T09:57:19.144Z,12.90
2019-04-30T09:59:48.771Z,12.37
2019-04-30T10:02:19.379Z,13.23
2019-04-30T10:04:50.051Z,12.33
2019-04-30T10:07:20.657Z,12.67
2019-04-30T10:09:51.094Z,12.93
2019-04-30T10:12:21.378Z,12.00
2019-04-30T10:14:51.733Z,13.80
2019-04-30T10:17:34.266Z,13.03
2019-04-30T10:20:06.705Z,13.73
2019-04-30T10:22:39.940Z,12.93
2019-04-30T10:25:11.239Z,13.07
2019-04-30T10:27:41.582Z,13.93
2019-04-30T10:30:13.451Z,13.70
2019-04-30T10:32:43.730Z,13.80
2019-04-30T10:35:13.691Z,13.90
2019-04-30T10:37:44.109Z,14.60
2019-04-30T10:40:14.654Z,14.03
2019-04-30T10:42:45.057Z,13.70
2019-04-30T10:45:15.358Z,13.87
2019-04-30T10:47:45.842Z,13.97
2019-04-30T10:50:16.476Z,13.70
2019-04-30T10:52:46.915Z,13.57
2019-04-30T10:55:17.808Z,14.10
2019-04-30T10:57:49.544Z,14.20
2019-04-30T11:00:24.037Z,13.97
2019-04-30T11:02:55.574Z,13.60
2019-04-30T11:05:26.029Z,14.10
2019-04-30T11:07:56.414Z,13.83
2019-04-30T11:10:28.654Z,14.37
2019-04-30T11:12:59.093Z,14.47
2019-04-30T11:15:29.421Z,14.17
2019-04-30T11:18:00.155Z,15.18
2019-04-30T11:20:30.749Z,15.13
2019-04-30T11:23:13.272Z,14.90
2019-04-30T11:25:34.138Z,14.77
2019-04-30T11:28:05.665Z,14.33
2019-04-30T11:30:39.012Z,15.73
2019-04-30T11:33:09.261Z,14.67
2019-04-30T11:35:39.686Z,15.03
2019-04-30T11:38:10.066Z,14.87
2019-04-30T11:40:40.706Z,14.30
2019-04-30T11:43:10.745Z,15.73
2019-04-30T11:46:22.933Z,15.73
2019-04-30T11:48:53.406Z,15.33
2019-04-30T11:51:27.016Z,14.83
2019-04-30T11:53:59.211Z,16.33
2019-04-30T11:56:29.050Z,15.97
2019-04-30T11:58:59.375Z,16.57
2019-04-30T12:01:31.369Z,15.37
2019-04-30T12:04:01.785Z,15.23
2019-04-30T12:06:32.169Z,15.07
2019-04-30T12:09:22.918Z,15.60
2019-04-30T12:11:53.253Z,13.83
2019-04-30T12:14:23.731Z,14.07
2019-04-30T12:16:54.101Z,14.13
2019-04-30T12:19:24.409Z,14.17
2019-04-30T12:21:54.738Z,12.57
2019-04-30T12:24:25.046Z,13.80
2019-04-30T12:26:55.370Z,14.50
2019-04-30T12:29:25.750Z,14.27
2019-04-30T12:31:56.269Z,13.93
2019-04-30T12:34:29.494Z,14.57
2019-04-30T12:37:00.003Z,14.47
2019-04-30T12:39:30.309Z,15.10
2019-04-30T12:42:02.135Z,14.97
2019-04-30T12:44:33.285Z,14.43
2019-04-30T12:47:03.684Z,13.93
2019-04-30T12:50:09.558Z,14.37
2019-04-30T12:53:01.934Z,13.73
2019-04-30T12:55:51.295Z,14.07
2019-04-30T12:58:21.746Z,14.73
2019-04-30T13:00:52.262Z,15.30
2019-04-30T13:03:22.592Z,14.13
2019-04-30T13:05:53.482Z,14.57
2019-04-30T13:08:24.475Z,15.07
2019-04-30T13:10:55.636Z,14.67
2019-04-30T13:13:26.421Z,14.33
2019-04-30T13:15:59.842Z,13.00
2019-04-30T13:18:29.625Z,14.10
2019-04-30T13:21:00.143Z,13.83
2019-04-30T13:23:30.524Z,12.60
2019-04-30T13:26:01.069Z,14.10
2019-04-30T13:28:36.158Z,13.10
2019-04-30T13:31:06.146Z,13.50
2019-04-30T13:33:42.226Z,11.87
2019-04-30T13:36:12.848Z,14.20
2019-04-30T13:38:52.356Z,13.33
2019-04-30T13:41:46.224Z,13.43
2019-04-30T13:44:20.809Z,12.40
2019-04-30T13:46:51.246Z,12.53
2019-04-30T13:49:21.670Z,12.73
2019-04-30T13:51:53.154Z,13.53
2019-04-30T13:54:23.443Z,12.27
2019-04-30T13:56:53.757Z,14.27
2019-04-30T13:59:24.122Z,13.97
2019-04-30T14:01:54.465Z,13.43
2019-04-30T14:04:42.850Z,11.33
2019-04-30T14:07:44.781Z,11.90
2019-04-30T14:10:15.309Z,11.20
2019-04-30T14:12:51.882Z,12.53
2019-04-30T14:15:22.321Z,12.27
2019-04-30T14:17:52.778Z,12.53
2019-04-30T14:20:23.147Z,12.63
2019-04-30T14:22:53.482Z,12.97
2019-04-30T14:25:23.854Z,11.83
2019-04-30T14:27:54.828Z,12.60
2019-04-30T14:30:25.784Z,12.60
2019-04-30T14:32:56.089Z,12.00
2019-04-30T14:35:26.446Z,12.13
2019-04-30T14:37:56.786Z,11.50
2019-04-30T14:40:29.801Z,11.83
2019-04-30T14:43:09.834Z,10.17
2019-04-30T14:45:52.989Z,10.43
2019-04-30T14:48:31.098Z,11.87
2019-04-30T14:51:01.333Z,11.20
2019-04-30T14:53:58.784Z,11.87
2019-04-30T14:56:39.306Z,11.73
2019-04-30T14:59:40.564Z,11.93
2019-04-30T15:02:36.117Z,10.97
2019-04-30T15:05:09.007Z,10.30
2019-04-30T15:07:42.142Z,10.97
2019-04-30T15:10:12.679Z,11.97
2019-04-30T15:12:42.993Z,10.57
2019-04-30T15:15:14.295Z,10.77
2019-04-30T15:17:44.709Z,10.50
2019-04-30T15:20:15.594Z,10.67
2019-04-30T15:22:55.601Z,10.27
2019-04-30T15:25:34.156Z,10.07
2019-04-30T15:28:01.740Z,9.97
2019-04-30T15:30:32.150Z,10.23
2019-04-30T15:33:11.237Z,10.93
2019-04-30T15:35:41.869Z,10.60
2019-04-30T15:38:12.286Z,10.90
2019-04-30T15:40:42.613Z,10.97
2019-04-30T15:43:13.098Z,10.80
2019-04-30T15:45:43.477Z,11.10
2019-04-30T15:48:13.793Z,10.77
2019-04-30T15:50:44.106Z,10.30
2019-04-30T15:53:14.422Z,10.20
2019-04-30T15:55:44.745Z,10.23
2019-04-30T15:58:23.093Z,11.23
2019-04-30T16:00:53.587Z,9.67
2019-04-30T16:03:27.134Z,10.07
2019-04-30T16:05:57.519Z,10.03
2019-04-30T16:08:32.205Z,11.30
2019-04-30T16:11:10.477Z,11.20
2019-04-30T16:13:58.628Z,10.90
2019-04-30T16:16:32.949Z,10.20
2019-04-30T16:19:03.585Z,11.47
2019-04-30T16:21:34.036Z,11.27
2019-04-30T16:24:04.724Z,11.53
2019-04-30T16:26:46.372Z,11.23
2019-04-30T16:29:09.823Z,11.23
2019-04-30T16:31:40.171Z,12.33
2019-04-30T16:34:13.537Z,11.97
2019-04-30T16:36:43.962Z,12.13
2019-04-30T16:39:14.417Z,12.40
2019-04-30T16:41:44.869Z,11.83
2019-04-30T16:44:15.291Z,12.20
2019-04-30T16:46:45.661Z,12.67
2019-04-30T16:49:16.336Z,12.07
2019-04-30T16:51:46.825Z,12.40
2019-04-30T16:54:20.358Z,12.17
2019-04-30T16:57:03.446Z,10.80
2019-04-30T16:59:33.438Z,12.70
2019-04-30T17:02:09.212Z,11.83
2019-04-30T17:04:52.298Z,13.13
2019-04-30T17:07:34.379Z,13.10
2019-04-30T17:10:27.088Z,12.77
2019-04-30T17:13:09.312Z,12.00
2019-04-30T17:15:40.505Z,12.97
2019-04-30T17:18:12.206Z,12.50
2019-04-30T17:20:42.934Z,13.30
2019-04-30T17:23:13.275Z,12.07
2019-04-30T17:25:44.049Z,12.40
2019-04-30T17:28:18.815Z,12.50
2019-04-30T17:30:49.437Z,13.93
2019-04-30T17:33:19.870Z,13.03
2019-04-30T17:35:50.293Z,12.03
2019-04-30T17:38:20.629Z,12.53
2019-04-30T17:40:50.978Z,12.43
2019-04-30T17:43:24.251Z,12.60
2019-04-30T17:45:53.651Z,13.33
2019-04-30T17:48:23.963Z,12.63
2019-04-30T17:50:54.426Z,12.87
2019-04-30T17:53:24.730Z,13.27
2019-04-30T17:55:55.089Z,12.90
2019-04-30T17:58:25.414Z,12.20
2019-04-30T18:00:57.583Z,12.37
2019-04-30T18:03:29.348Z,12.17
2019-04-30T18:05:59.721Z,12.23
2019-04-30T18:08:30.078Z,12.00
2019-04-30T18:11:00.646Z,12.07
2019-04-30T18:13:30.966Z,12.13
2019-04-30T18:16:01.386Z,12.73
2019-04-30T18:18:37.871Z,12.20
2019-04-30T18:21:21.058Z,12.00
2019-04-30T18:24:09.213Z,11.43
2019-04-30T18:26:46.698Z,12.10
2019-04-30T18:29:17.013Z,12.50
2019-04-30T18:31:48.975Z,11.80
2019-04-30T18:34:19.511Z,11.77
2019-04-30T18:36:51.245Z,11.83
2019-04-30T18:39:21.824Z,12.23
2019-04-30T18:41:52.141Z,11.97
2019-04-30T18:44:22.468Z,12.27
2019-04-30T18:46:52.802Z,12.27
2019-04-30T18:49:23.110Z,11.90
2019-04-30T18:51:53.470Z,12.30
2019-04-30T18:54:28.986Z,12.23
2019-04-30T18:56:59.389Z,12.30
2019-04-30T18:59:32.536Z,12.43
2019-04-30T19:02:01.946Z,12.83
2019-04-30T19:04:32.306Z,13.47
2019-04-30T19:07:12.365Z,12.57
2019-04-30T19:09:49.076Z,12.97
2019-04-30T19:12:58.973Z,13.03
2019-04-30T19:16:13.640Z,13.03
2019-04-30T19:18:47.110Z,12.57
2019-04-30T19:21:17.647Z,12.70
2019-04-30T19:23:48.961Z,13.13
2019-04-30T19:26:20.936Z,13.40
2019-04-30T19:28:52.138Z,13.10
2019-04-30T19:31:23.089Z,13.67
2019-04-30T19:33:56.011Z,13.60
2019-04-30T19:36:37.409Z,13.53
2019-04-30T19:39:01.478Z,14.10
2019-04-30T19:41:32.015Z,14.13
2019-04-30T19:44:02.397Z,13.20
2019-04-30T19:46:32.733Z,13.57
2019-04-30T19:49:04.036Z,13.93
2019-04-30T19:51:34.449Z,14.57
2019-04-30T19:54:04.983Z,14.67
2019-04-30T19:56:40.078Z,13.10
2019-04-30T19:59:10.665Z,13.20
2019-04-30T20:01:43.343Z,13.70
2019-04-30T20:04:15.224Z,13.90
2019-04-30T20:06:50.508Z,13.63
2019-04-30T20:09:21.925Z,13.90
2019-04-30T20:11:52.381Z,14.90
2019-04-30T20:14:26.430Z,14.00
2019-04-30T20:16:59.100Z,13.87
2019-04-30T20:19:31.181Z,14.20
2019-04-30T20:22:04.665Z,14.20
2019-04-30T20:24:39.318Z,14.77
2019-04-30T20:27:10.780Z,14.27
2019-04-30T20:29:44.623Z,14.43
2019-04-30T20:32:15.460Z,14.50
2019-04-30T20:34:54.380Z,15.07
2019-04-30T20:37:29.358Z,14.57
2019-04-30T20:40:10.784Z,14.20
2019-04-30T20:42:41.778Z,13.37
2019-04-30T20:45:12.313Z,13.07
2019-04-30T20:47:42.763Z,14.77
2019-04-30T20:50:13.690Z,13.77
2019-04-30T20:52:52.317Z,13.43
2019-04-30T20:55:26.137Z,13.70
2019-04-30T20:57:56.478Z,13.57
2019-04-30T21:00:26.909Z,13.93
2019-04-30T21:02:57.257Z,14.07
2019-04-30T21:05:27.683Z,14.23
2019-04-30T21:07:58.221Z,13.30
2019-04-30T21:10:29.733Z,15.17
2019-04-30T21:13:00.258Z,14.77
2019-04-30T21:15:30.629Z,15.00
2019-04-30T21:18:01.011Z,14.30
2019-04-30T21:20:31.456Z,14.37
2019-04-30T21:23:01.810Z,15.00
2019-04-30T21:25:32.121Z,14.03
2019-04-30T21:28:02.498Z,15.13
2019-04-30T21:30:32.957Z,14.30
2019-04-30T21:33:28.486Z,14.53
2019-04-30T21:36:20.177Z,14.67
2019-04-30T21:38:50.505Z,14.50
2019-04-30T21:41:20.890Z,13.90
2019-04-30T21:43:51.373Z,15.13
2019-04-30T21:46:21.730Z,14.47
2019-04-30T21:48:52.665Z,14.70
2019-04-30T21:51:22.970Z,14.17
2019-04-30T21:53:53.369Z,14.37
2019-04-30T21:56:24.026Z,14.10
2019-04-30T21:58:55.746Z,14.00
2019-04-30T22:01:26.624Z,14.93
2019-04-30T22:03:57.513Z,14.40
2019-04-30T22:06:29.707Z,14.67
2019-04-30T22:09:01.074Z,14.30
2019-04-30T22:11:31.914Z,15.17
2019-04-30T22:14:02.289Z,15.43
2019-04-30T22:16:32.733Z,15.80
2019-04-30T22:19:03.073Z,15.43
2019-04-30T22:21:33.621Z,15.20
2019-04-30T22:24:03.997Z,15.00
2019-04-30T22:26:34.474Z,15.13
2019-04-30T22:29:05.108Z,15.30
2019-04-30T22:31:35.740Z,15.73
2019-04-30T22:34:08.783Z,16.40
2019-04-30T22:36:48.845Z,15.57
2019-04-30T22:39:33.381Z,15.93
2019-04-30T22:42:39.795Z,17.70
2019-04-30T22:45:21.392Z,17.37
2019-04-30T22:47:53.195Z,16.87
2019-04-30T22:50:25.161Z,16.53
2019-04-30T22:52:55.654Z,17.40
2019-04-30T22:55:25.993Z,17.43
2019-04-30T22:57:56.302Z,17.70
2019-04-30T23:00:39.528Z,17.67
2019-04-30T23:03:12.938Z,18.20
2019-04-30T23:05:43.261Z,18.63
2019-04-30T23:08:13.569Z,18.40
2019-04-30T23:10:43.901Z,18.90
2019-04-30T23:13:14.517Z,19.53
2019-04-30T23:15:44.906Z,19.47
2019-04-30T23:18:15.343Z,19.40
2019-04-30T23:20:45.693Z,19.40
2019-04-30T23:23:16.042Z,19.20
2019-04-30T23:25:46.345Z,20.30
2019-04-30T23:28:16.878Z,19.63
2019-04-30T23:30:47.269Z,19.23
2019-04-30T23:33:17.597Z,20.03
2019-04-30T23:35:47.918Z,20.00
2019-04-30T23:38:18.253Z,19.77
2019-04-30T23:40:51.182Z,19.77
2019-04-30T23:43:21.604Z,20.43
2019-04-30T23:45:51.917Z,20.03
2019-04-30T23:48:22.491Z,21.00
2019-04-30T23:50:52.925Z,21.73
2019-04-30T23:53:23.240Z,20.73
2019-04-30T23:55:53.856Z,21.10
2019-04-30T23:58:24.201Z,21.80
